sensor_id;sensor_type;location;lat;lon;timestamp;temperature;humidity
47921;DHT22;33686;48.770;9.186;2023-12-28T06:17:43;9.10;99.90
47921;DHT22;33686;48.770;9.186;2023-12-28T06:20:09;9.30;99.90
47921;DHT22;33686;48.770;9.186;2023-12-28T06:22:38;9.30;99.90
47921;DHT22;33686;48.770;9.186;2023-12-28T06:25:05;9.40;99.90
47921;DHT22;33686;48.770;9.186;2023-12-28T06:27:32;9.40;99.90
47921;DHT22;33686;48.770;9.186;2023-12-28T06:29:58;9.50;99.90
47921;DHT22;33686;48.770;9.186;2023-12-28T06:32:23;9.50;99.90
47921;DHT22;33686;48.770;9.186;2023-12-28T06:34:49;9.60;99.90
47921;DHT22;33686;48.770;9.186;2023-12-28T06:37:15;9.70;99.90
47921;DHT22;33686;48.770;9.186;2023-12-28T06:39:41;9.70;99.90
47921;DHT22;33686;48.770;9.186;2023-12-28T06:42:06;9.60;99.90
47921;DHT22;33686;48.770;9.186;2023-12-28T06:44:32;9.60;99.90
47921;DHT22;33686;48.770;9.186;2023-12-28T06:46:58;9.60;99.90
47921;DHT22;33686;48.770;9.186;2023-12-28T06:49:24;9.70;99.90
47921;DHT22;33686;48.770;9.186;2023-12-28T06:51:50;9.70;99.90
47921;DHT22;33686;48.770;9.186;2023-12-28T06:54:16;9.80;99.90
47921;DHT22;33686;48.770;9.186;2023-12-28T06:56:42;9.90;99.90
47921;DHT22;33686;48.770;9.186;2023-12-28T06:59:08;9.90;99.90
47921;DHT22;33686;48.770;9.186;2023-12-28T07:01:40;9.90;99.90
47921;DHT22;33686;48.770;9.186;2023-12-28T07:04:07;10.00;99.90
47921;DHT22;33686;48.770;9.186;2023-12-28T07:06:32;9.90;99.90
47921;DHT22;33686;48.770;9.186;2023-12-28T07:08:58;10.00;99.90
47921;DHT22;33686;48.770;9.186;2023-12-28T07:11:24;9.90;99.90
47921;DHT22;33686;48.770;9.186;2023-12-28T07:13:52;10.00;99.90
47921;DHT22;33686;48.770;9.186;2023-12-28T07:16:17;10.00;99.90
47921;DHT22;33686;48.770;9.186;2023-12-28T07:18:43;10.00;99.90
47921;DHT22;33686;48.770;9.186;2023-12-28T07:21:09;10.00;99.90
47921;DHT22;33686;48.770;9.186;2023-12-28T07:23:35;10.00;99.90
47921;DHT22;33686;48.770;9.186;2023-12-28T07:26:01;10.00;99.90
47921;DHT22;33686;48.770;9.186;2023-12-28T07:28:27;10.00;99.90
47921;DHT22;33686;48.770;9.186;2023-12-28T07:30:53;10.00;99.90
47921;DHT22;33686;48.770;9.186;2023-12-28T07:33:19;9.90;99.90
47921;DHT22;33686;48.770;9.186;2023-12-28T07:35:45;10.00;99.90
47921;DHT22;33686;48.770;9.186;2023-12-28T07:38:11;9.90;99.90
47921;DHT22;33686;48.770;9.186;2023-12-28T07:40:37;9.90;99.90
47921;DHT22;33686;48.770;9.186;2023-12-28T07:43:03;9.90;99.90
47921;DHT22;33686;48.770;9.186;2023-12-28T07:45:29;9.90;99.90
47921;DHT22;33686;48.770;9.186;2023-12-28T07:47:55;9.90;99.90
47921;DHT22;33686;48.770;9.186;2023-12-28T07:50:21;9.90;99.90
47921;DHT22;33686;48.770;9.186;2023-12-28T07:52:48;9.90;99.90
47921;DHT22;33686;48.770;9.186;2023-12-28T07:55:14;9.90;99.90
47921;DHT22;33686;48.770;9.186;2023-12-28T07:57:39;9.90;99.90
47921;DHT22;33686;48.770;9.186;2023-12-28T08:00:06;9.80;99.90
47921;DHT22;33686;48.770;9.186;2023-12-28T08:02:32;9.80;99.90
47921;DHT22;33686;48.770;9.186;2023-12-28T08:04:58;9.80;99.90
47921;DHT22;33686;48.770;9.186;2023-12-28T08:07:23;9.70;99.90
47921;DHT22;33686;48.770;9.186;2023-12-28T08:09:49;9.50;99.90
47921;DHT22;33686;48.770;9.186;2023-12-28T08:12:15;9.40;99.90
47921;DHT22;33686;48.770;9.186;2023-12-28T08:14:40;9.40;99.90
47921;DHT22;33686;48.770;9.186;2023-12-28T08:17:06;9.40;99.90
47921;DHT22;33686;48.770;9.186;2023-12-28T08:19:33;9.40;99.90
47921;DHT22;33686;48.770;9.186;2023-12-28T08:21:58;9.40;99.90
47921;DHT22;33686;48.770;9.186;2023-12-28T08:24:24;9.40;99.90
47921;DHT22;33686;48.770;9.186;2023-12-28T08:26:50;9.40;99.90
47921;DHT22;33686;48.770;9.186;2023-12-28T08:29:15;9.40;99.90
47921;DHT22;33686;48.770;9.186;2023-12-28T08:31:41;9.30;99.90
47921;DHT22;33686;48.770;9.186;2023-12-28T08:34:06;9.40;99.90
47921;DHT22;33686;48.770;9.186;2023-12-28T08:36:32;9.30;99.90
47921;DHT22;33686;48.770;9.186;2023-12-28T08:38:58;9.30;99.90
47921;DHT22;33686;48.770;9.186;2023-12-28T08:41:24;9.40;99.90
47921;DHT22;33686;48.770;9.186;2023-12-28T08:43:50;9.40;99.90
47921;DHT22;33686;48.770;9.186;2023-12-28T08:46:16;9.40;99.90
47921;DHT22;33686;48.770;9.186;2023-12-28T08:48:42;9.40;99.90
47921;DHT22;33686;48.770;9.186;2023-12-28T08:51:10;9.40;99.90
47921;DHT22;33686;48.770;9.186;2023-12-28T08:53:36;9.40;99.90
47921;DHT22;33686;48.770;9.186;2023-12-28T08:56:02;9.40;99.90
47921;DHT22;33686;48.770;9.186;2023-12-28T08:58:27;9.50;99.90
47921;DHT22;33686;48.770;9.186;2023-12-28T09:00:53;9.60;99.90
47921;DHT22;33686;48.770;9.186;2023-12-28T09:03:19;9.70;99.90
47921;DHT22;33686;48.770;9.186;2023-12-28T09:05:44;9.60;99.90
47921;DHT22;33686;48.770;9.186;2023-12-28T09:08:10;9.60;99.90
47921;DHT22;33686;48.770;9.186;2023-12-28T09:10:35;9.50;99.90
47921;DHT22;33686;48.770;9.186;2023-12-28T09:13:04;9.50;99.90
47921;DHT22;33686;48.770;9.186;2023-12-28T09:15:30;9.40;99.90
47921;DHT22;33686;48.770;9.186;2023-12-28T09:17:56;9.30;99.90
47921;DHT22;33686;48.770;9.186;2023-12-28T09:20:22;9.30;99.90
47921;DHT22;33686;48.770;9.186;2023-12-28T09:22:47;9.30;99.90
47921;DHT22;33686;48.770;9.186;2023-12-28T09:25:18;9.30;99.90
47921;DHT22;33686;48.770;9.186;2023-12-28T09:27:44;9.30;99.90
47921;DHT22;33686;48.770;9.186;2023-12-28T09:30:10;9.40;99.90
47921;DHT22;33686;48.770;9.186;2023-12-28T09:32:35;9.40;99.90
47921;DHT22;33686;48.770;9.186;2023-12-28T09:35:01;9.40;99.90
47921;DHT22;33686;48.770;9.186;2023-12-28T09:37:27;9.50;99.90
47921;DHT22;33686;48.770;9.186;2023-12-28T09:39:52;9.60;99.90
47921;DHT22;33686;48.770;9.186;2023-12-28T09:42:25;9.80;99.90
47921;DHT22;33686;48.770;9.186;2023-12-28T09:44:52;10.00;99.90
47921;DHT22;33686;48.770;9.186;2023-12-28T09:47:17;10.10;99.90
47921;DHT22;33686;48.770;9.186;2023-12-28T09:49:43;10.30;99.90
47921;DHT22;33686;48.770;9.186;2023-12-28T09:52:09;10.40;99.90
47921;DHT22;33686;48.770;9.186;2023-12-28T09:54:35;10.50;99.90
47921;DHT22;33686;48.770;9.186;2023-12-28T09:57:01;10.60;99.90
47921;DHT22;33686;48.770;9.186;2023-12-28T09:59:27;10.70;99.90
47921;DHT22;33686;48.770;9.186;2023-12-28T10:01:55;10.60;99.90
47921;DHT22;33686;48.770;9.186;2023-12-28T10:04:21;10.70;99.90
47921;DHT22;33686;48.770;9.186;2023-12-28T10:06:47;10.70;99.90
47921;DHT22;33686;48.770;9.186;2023-12-28T10:09:13;10.80;99.90
47921;DHT22;33686;48.770;9.186;2023-12-28T10:11:38;10.80;99.90
47921;DHT22;33686;48.770;9.186;2023-12-28T10:14:04;10.70;99.90
47921;DHT22;33686;48.770;9.186;2023-12-28T10:16:30;10.80;99.90
47921;DHT22;33686;48.770;9.186;2023-12-28T10:18:56;10.80;99.90
47921;DHT22;33686;48.770;9.186;2023-12-28T10:21:23;10.80;99.90
47921;DHT22;33686;48.770;9.186;2023-12-28T10:23:49;10.80;99.90
47921;DHT22;33686;48.770;9.186;2023-12-28T10:26:18;10.80;99.90
47921;DHT22;33686;48.770;9.186;2023-12-28T10:28:43;10.80;99.90
47921;DHT22;33686;48.770;9.186;2023-12-28T10:31:09;10.80;99.90
47921;DHT22;33686;48.770;9.186;2023-12-28T10:33:36;10.80;99.90
47921;DHT22;33686;48.770;9.186;2023-12-28T10:36:06;10.80;99.90
47921;DHT22;33686;48.770;9.186;2023-12-28T10:38:35;10.80;99.90
47921;DHT22;33686;48.770;9.186;2023-12-28T10:41:08;10.80;99.90
47921;DHT22;33686;48.770;9.186;2023-12-28T10:43:45;10.80;99.90
47921;DHT22;33686;48.770;9.186;2023-12-28T10:46:25;10.80;99.90
47921;DHT22;33686;48.770;9.186;2023-12-28T10:49:05;10.80;99.90
47921;DHT22;33686;48.770;9.186;2023-12-28T10:51:35;10.80;99.90
47921;DHT22;33686;48.770;9.186;2023-12-28T10:54:14;10.90;99.90
47921;DHT22;33686;48.770;9.186;2023-12-28T11:00:05;11.00;99.90
47921;DHT22;33686;48.770;9.186;2023-12-28T11:02:39;11.10;99.90
47921;DHT22;33686;48.770;9.186;2023-12-28T11:05:07;11.10;99.90
47921;DHT22;33686;48.770;9.186;2023-12-28T11:07:34;11.20;99.90
47921;DHT22;33686;48.770;9.186;2023-12-28T11:10:02;11.20;99.90
47921;DHT22;33686;48.770;9.186;2023-12-28T11:12:30;11.20;99.90
47921;DHT22;33686;48.770;9.186;2023-12-28T11:14:57;11.10;99.90
47921;DHT22;33686;48.770;9.186;2023-12-28T11:17:23;11.20;99.90
47921;DHT22;33686;48.770;9.186;2023-12-28T11:19:52;11.20;99.90
47921;DHT22;33686;48.770;9.186;2023-12-28T11:22:19;11.30;99.90
47921;DHT22;33686;48.770;9.186;2023-12-28T11:24:45;11.20;99.90
47921;DHT22;33686;48.770;9.186;2023-12-28T11:27:11;11.30;99.90
47921;DHT22;33686;48.770;9.186;2023-12-28T11:29:38;11.40;99.90
47921;DHT22;33686;48.770;9.186;2023-12-28T11:32:04;11.30;99.90
47921;DHT22;33686;48.770;9.186;2023-12-28T11:34:31;11.20;99.90
47921;DHT22;33686;48.770;9.186;2023-12-28T11:37:08;11.30;99.90
47921;DHT22;33686;48.770;9.186;2023-12-28T11:39:38;11.30;99.90
47921;DHT22;33686;48.770;9.186;2023-12-28T11:42:09;11.20;99.90
47921;DHT22;33686;48.770;9.186;2023-12-28T11:44:39;11.20;99.90
47921;DHT22;33686;48.770;9.186;2023-12-28T11:47:16;11.20;99.90
47921;DHT22;33686;48.770;9.186;2023-12-28T11:49:42;11.10;99.90
47921;DHT22;33686;48.770;9.186;2023-12-28T11:52:25;11.10;99.90
47921;DHT22;33686;48.770;9.186;2023-12-28T11:54:52;11.20;99.90
47921;DHT22;33686;48.770;9.186;2023-12-28T11:57:17;11.20;99.90
47921;DHT22;33686;48.770;9.186;2023-12-28T11:59:43;11.10;99.90
47921;DHT22;33686;48.770;9.186;2023-12-28T12:02:10;11.10;99.90
47921;DHT22;33686;48.770;9.186;2023-12-28T12:04:36;11.20;99.90
47921;DHT22;33686;48.770;9.186;2023-12-28T12:07:02;11.20;99.90
47921;DHT22;33686;48.770;9.186;2023-12-28T12:09:29;11.10;99.90
47921;DHT22;33686;48.770;9.186;2023-12-28T12:12:00;11.10;99.90
47921;DHT22;33686;48.770;9.186;2023-12-28T12:14:26;11.10;99.90
47921;DHT22;33686;48.770;9.186;2023-12-28T12:16:54;11.20;99.90
47921;DHT22;33686;48.770;9.186;2023-12-28T12:19:23;11.20;99.90
47921;DHT22;33686;48.770;9.186;2023-12-28T12:21:49;11.20;99.90
47921;DHT22;33686;48.770;9.186;2023-12-28T12:24:17;11.20;99.90
47921;DHT22;33686;48.770;9.186;2023-12-28T12:26:43;11.20;99.90
47921;DHT22;33686;48.770;9.186;2023-12-28T12:29:08;11.20;99.90
47921;DHT22;33686;48.770;9.186;2023-12-28T12:31:35;11.30;99.90
47921;DHT22;33686;48.770;9.186;2023-12-28T12:34:03;11.20;99.90
47921;DHT22;33686;48.770;9.186;2023-12-28T12:36:29;11.20;99.90
47921;DHT22;33686;48.770;9.186;2023-12-28T12:38:54;11.20;99.90
47921;DHT22;33686;48.770;9.186;2023-12-28T12:41:20;11.30;99.90
47921;DHT22;33686;48.770;9.186;2023-12-28T12:43:45;11.20;99.90
47921;DHT22;33686;48.770;9.186;2023-12-28T12:46:12;11.30;99.90
47921;DHT22;33686;48.770;9.186;2023-12-28T12:48:38;11.30;99.90
47921;DHT22;33686;48.770;9.186;2023-12-28T12:51:04;11.30;99.90
47921;DHT22;33686;48.770;9.186;2023-12-28T12:53:34;11.30;99.90
47921;DHT22;33686;48.770;9.186;2023-12-28T12:56:00;11.30;99.90
47921;DHT22;33686;48.770;9.186;2023-12-28T12:58:26;11.40;99.90
47921;DHT22;33686;48.770;9.186;2023-12-28T13:00:52;11.40;99.90
47921;DHT22;33686;48.770;9.186;2023-12-28T13:03:20;11.40;99.90
47921;DHT22;33686;48.770;9.186;2023-12-28T13:05:45;11.40;99.90
47921;DHT22;33686;48.770;9.186;2023-12-28T13:08:11;11.30;99.90
47921;DHT22;33686;48.770;9.186;2023-12-28T13:10:37;11.30;99.90
47921;DHT22;33686;48.770;9.186;2023-12-28T13:13:06;11.40;99.90
47921;DHT22;33686;48.770;9.186;2023-12-28T13:15:32;11.40;99.90
47921;DHT22;33686;48.770;9.186;2023-12-28T13:17:58;11.40;99.90
47921;DHT22;33686;48.770;9.186;2023-12-28T13:20:23;11.40;99.90
47921;DHT22;33686;48.770;9.186;2023-12-28T13:22:49;11.40;99.90
47921;DHT22;33686;48.770;9.186;2023-12-28T13:25:15;11.40;99.90
47921;DHT22;33686;48.770;9.186;2023-12-28T13:27:41;11.40;99.90
47921;DHT22;33686;48.770;9.186;2023-12-28T13:30:07;11.40;99.90
47921;DHT22;33686;48.770;9.186;2023-12-28T13:32:33;11.40;99.90
47921;DHT22;33686;48.770;9.186;2023-12-28T13:34:59;11.40;99.90
47921;DHT22;33686;48.770;9.186;2023-12-28T13:37:25;11.40;99.90
47921;DHT22;33686;48.770;9.186;2023-12-28T13:39:50;11.30;99.90
47921;DHT22;33686;48.770;9.186;2023-12-28T13:42:16;11.30;99.90
47921;DHT22;33686;48.770;9.186;2023-12-28T13:44:42;11.30;99.90
47921;DHT22;33686;48.770;9.186;2023-12-28T13:47:08;11.30;99.90
47921;DHT22;33686;48.770;9.186;2023-12-28T13:49:34;11.30;99.90
47921;DHT22;33686;48.770;9.186;2023-12-28T13:52:00;11.30;99.90
47921;DHT22;33686;48.770;9.186;2023-12-28T13:54:25;11.20;99.90
47921;DHT22;33686;48.770;9.186;2023-12-28T13:56:51;11.20;99.90
47921;DHT22;33686;48.770;9.186;2023-12-28T13:59:23;11.30;99.90
47921;DHT22;33686;48.770;9.186;2023-12-28T14:01:48;11.20;99.90
47921;DHT22;33686;48.770;9.186;2023-12-28T14:04:14;11.20;99.90
47921;DHT22;33686;48.770;9.186;2023-12-28T14:06:39;11.20;99.90
47921;DHT22;33686;48.770;9.186;2023-12-28T14:09:05;11.10;99.90
47921;DHT22;33686;48.770;9.186;2023-12-28T14:11:31;11.10;99.90
47921;DHT22;33686;48.770;9.186;2023-12-28T14:13:56;11.10;99.90
47921;DHT22;33686;48.770;9.186;2023-12-28T14:16:22;11.10;99.90
47921;DHT22;33686;48.770;9.186;2023-12-28T14:18:48;11.10;99.90
47921;DHT22;33686;48.770;9.186;2023-12-28T14:21:15;11.10;99.90
47921;DHT22;33686;48.770;9.186;2023-12-28T14:23:41;11.10;99.90
47921;DHT22;33686;48.770;9.186;2023-12-28T14:26:13;11.00;99.90
47921;DHT22;33686;48.770;9.186;2023-12-28T14:28:41;11.00;99.90
47921;DHT22;33686;48.770;9.186;2023-12-28T14:31:11;11.00;99.90
47921;DHT22;33686;48.770;9.186;2023-12-28T14:33:37;10.90;99.90
47921;DHT22;33686;48.770;9.186;2023-12-28T14:36:06;10.90;99.90
47921;DHT22;33686;48.770;9.186;2023-12-28T14:38:36;10.80;99.90
47921;DHT22;33686;48.770;9.186;2023-12-28T14:41:03;10.80;99.90
47921;DHT22;33686;48.770;9.186;2023-12-28T14:43:28;10.80;99.90
47921;DHT22;33686;48.770;9.186;2023-12-28T14:45:54;10.80;99.90
47921;DHT22;33686;48.770;9.186;2023-12-28T14:48:20;10.70;99.90
47921;DHT22;33686;48.770;9.186;2023-12-28T14:50:45;10.70;99.90
47921;DHT22;33686;48.770;9.186;2023-12-28T14:53:11;10.70;99.90
47921;DHT22;33686;48.770;9.186;2023-12-28T14:55:36;10.70;99.90
47921;DHT22;33686;48.770;9.186;2023-12-28T14:58:02;10.70;99.90
47921;DHT22;33686;48.770;9.186;2023-12-28T15:00:28;10.60;99.90
47921;DHT22;33686;48.770;9.186;2023-12-28T15:02:53;10.70;99.90
47921;DHT22;33686;48.770;9.186;2023-12-28T15:05:19;10.70;99.90
47921;DHT22;33686;48.770;9.186;2023-12-28T15:07:44;10.60;99.90
47921;DHT22;33686;48.770;9.186;2023-12-28T15:10:10;10.60;99.90
47921;DHT22;33686;48.770;9.186;2023-12-28T15:12:37;10.60;99.90
47921;DHT22;33686;48.770;9.186;2023-12-28T15:15:03;10.60;99.90
47921;DHT22;33686;48.770;9.186;2023-12-28T15:17:29;10.60;99.90
47921;DHT22;33686;48.770;9.186;2023-12-28T15:19:54;10.60;99.90
47921;DHT22;33686;48.770;9.186;2023-12-28T15:22:20;10.60;99.90
47921;DHT22;33686;48.770;9.186;2023-12-28T15:24:46;10.60;99.90
47921;DHT22;33686;48.770;9.186;2023-12-28T15:27:12;10.60;99.90
47921;DHT22;33686;48.770;9.186;2023-12-28T15:29:38;10.60;99.90
47921;DHT22;33686;48.770;9.186;2023-12-28T15:32:04;10.60;99.90
47921;DHT22;33686;48.770;9.186;2023-12-28T15:34:29;10.50;99.90
47921;DHT22;33686;48.770;9.186;2023-12-28T15:36:55;10.50;99.90
47921;DHT22;33686;48.770;9.186;2023-12-28T15:40:33;10.50;99.90
47921;DHT22;33686;48.770;9.186;2023-12-28T15:42:59;10.60;99.90
47921;DHT22;33686;48.770;9.186;2023-12-28T15:45:25;10.50;99.90
47921;DHT22;33686;48.770;9.186;2023-12-28T15:47:52;10.50;99.90
47921;DHT22;33686;48.770;9.186;2023-12-28T15:50:18;10.50;99.90
47921;DHT22;33686;48.770;9.186;2023-12-28T15:52:44;10.50;99.90
47921;DHT22;33686;48.770;9.186;2023-12-28T15:55:12;10.50;99.90
47921;DHT22;33686;48.770;9.186;2023-12-28T15:57:37;10.50;99.90
47921;DHT22;33686;48.770;9.186;2023-12-28T16:00:05;10.40;99.90
47921;DHT22;33686;48.770;9.186;2023-12-28T16:02:52;10.50;99.90
47921;DHT22;33686;48.770;9.186;2023-12-28T16:05:17;10.40;99.90
47921;DHT22;33686;48.770;9.186;2023-12-28T16:07:43;10.40;99.90
47921;DHT22;33686;48.770;9.186;2023-12-28T16:10:10;10.40;99.90
47921;DHT22;33686;48.770;9.186;2023-12-28T16:12:37;10.40;99.90
47921;DHT22;33686;48.770;9.186;2023-12-28T16:15:08;10.40;99.90
47921;DHT22;33686;48.770;9.186;2023-12-28T16:17:35;10.30;99.90
47921;DHT22;33686;48.770;9.186;2023-12-28T16:20:03;10.30;99.90
47921;DHT22;33686;48.770;9.186;2023-12-28T16:22:28;10.20;99.90
47921;DHT22;33686;48.770;9.186;2023-12-28T16:24:54;10.20;99.90
47921;DHT22;33686;48.770;9.186;2023-12-28T16:27:20;10.20;99.90
47921;DHT22;33686;48.770;9.186;2023-12-28T16:29:46;10.20;99.90
47921;DHT22;33686;48.770;9.186;2023-12-28T16:32:11;10.20;99.90
47921;DHT22;33686;48.770;9.186;2023-12-28T16:34:37;10.10;99.90
47921;DHT22;33686;48.770;9.186;2023-12-28T16:37:03;10.10;99.90
47921;DHT22;33686;48.770;9.186;2023-12-28T16:39:29;10.10;99.90
47921;DHT22;33686;48.770;9.186;2023-12-28T16:41:55;10.10;99.90
47921;DHT22;33686;48.770;9.186;2023-12-28T16:44:21;10.10;99.90
47921;DHT22;33686;48.770;9.186;2023-12-28T16:46:48;10.10;99.90
47921;DHT22;33686;48.770;9.186;2023-12-28T16:49:14;10.10;99.90
47921;DHT22;33686;48.770;9.186;2023-12-28T16:51:40;10.00;99.90
47921;DHT22;33686;48.770;9.186;2023-12-28T16:54:11;10.10;99.90
47921;DHT22;33686;48.770;9.186;2023-12-28T16:56:38;10.10;99.90
47921;DHT22;33686;48.770;9.186;2023-12-28T16:59:10;10.10;99.90
47921;DHT22;33686;48.770;9.186;2023-12-28T17:01:39;10.20;99.90
47921;DHT22;33686;48.770;9.186;2023-12-28T17:04:05;10.10;99.90
47921;DHT22;33686;48.770;9.186;2023-12-28T17:06:31;10.10;99.90
47921;DHT22;33686;48.770;9.186;2023-12-28T17:08:57;10.10;99.90
47921;DHT22;33686;48.770;9.186;2023-12-28T17:11:31;10.10;99.90
47921;DHT22;33686;48.770;9.186;2023-12-28T17:13:58;10.10;99.90
47921;DHT22;33686;48.770;9.186;2023-12-28T17:16:24;10.10;99.90
47921;DHT22;33686;48.770;9.186;2023-12-28T17:18:51;10.10;99.90
47921;DHT22;33686;48.770;9.186;2023-12-28T17:21:20;10.10;99.90
47921;DHT22;33686;48.770;9.186;2023-12-28T17:23:51;10.10;99.90
47921;DHT22;33686;48.770;9.186;2023-12-28T17:28:50;10.10;99.90
47921;DHT22;33686;48.770;9.186;2023-12-28T17:31:23;10.00;99.90
47921;DHT22;33686;48.770;9.186;2023-12-28T17:33:50;10.00;99.90
47921;DHT22;33686;48.770;9.186;2023-12-28T17:36:16;10.00;99.90
47921;DHT22;33686;48.770;9.186;2023-12-28T17:38:43;10.00;99.90
47921;DHT22;33686;48.770;9.186;2023-12-28T17:41:12;10.00;99.90
47921;DHT22;33686;48.770;9.186;2023-12-28T17:43:51;10.00;99.90
47921;DHT22;33686;48.770;9.186;2023-12-28T17:46:38;9.90;99.90
47921;DHT22;33686;48.770;9.186;2023-12-28T17:49:10;9.90;99.90
47921;DHT22;33686;48.770;9.186;2023-12-28T17:51:39;9.90;99.90
47921;DHT22;33686;48.770;9.186;2023-12-28T17:54:06;9.90;99.90
47921;DHT22;33686;48.770;9.186;2023-12-28T17:56:32;9.90;99.90
47921;DHT22;33686;48.770;9.186;2023-12-28T17:58:59;9.90;99.90
47921;DHT22;33686;48.770;9.186;2023-12-28T18:01:24;9.90;99.90
47921;DHT22;33686;48.770;9.186;2023-12-28T18:03:52;9.90;99.90
47921;DHT22;33686;48.770;9.186;2023-12-28T18:06:19;9.90;99.90
47921;DHT22;33686;48.770;9.186;2023-12-28T18:08:45;9.90;99.90
47921;DHT22;33686;48.770;9.186;2023-12-28T18:11:12;9.90;99.90
47921;DHT22;33686;48.770;9.186;2023-12-28T18:13:40;10.00;99.90
47921;DHT22;33686;48.770;9.186;2023-12-28T18:16:08;9.90;99.90
47921;DHT22;33686;48.770;9.186;2023-12-28T18:18:35;9.90;99.90
47921;DHT22;33686;48.770;9.186;2023-12-28T18:21:01;9.90;99.90
47921;DHT22;33686;48.770;9.186;2023-12-28T18:23:26;9.90;99.90
47921;DHT22;33686;48.770;9.186;2023-12-28T18:25:52;9.90;99.90
47921;DHT22;33686;48.770;9.186;2023-12-28T18:28:17;9.90;99.90
47921;DHT22;33686;48.770;9.186;2023-12-28T18:30:43;9.90;99.90
47921;DHT22;33686;48.770;9.186;2023-12-28T18:33:08;9.90;99.90
47921;DHT22;33686;48.770;9.186;2023-12-28T18:35:34;9.90;99.90
47921;DHT22;33686;48.770;9.186;2023-12-28T18:38:00;9.90;99.90
47921;DHT22;33686;48.770;9.186;2023-12-28T18:40:26;9.80;99.90
47921;DHT22;33686;48.770;9.186;2023-12-28T18:42:52;9.90;99.90
47921;DHT22;33686;48.770;9.186;2023-12-28T18:45:17;9.90;99.90
47921;DHT22;33686;48.770;9.186;2023-12-28T18:47:43;9.80;99.90
47921;DHT22;33686;48.770;9.186;2023-12-28T18:50:09;9.80;99.90
47921;DHT22;33686;48.770;9.186;2023-12-28T18:52:34;9.80;99.90
47921;DHT22;33686;48.770;9.186;2023-12-28T18:55:00;9.80;99.90
47921;DHT22;33686;48.770;9.186;2023-12-28T18:57:26;9.80;99.90
47921;DHT22;33686;48.770;9.186;2023-12-28T18:59:52;9.70;99.90
47921;DHT22;33686;48.770;9.186;2023-12-28T19:02:18;9.70;99.90
47921;DHT22;33686;48.770;9.186;2023-12-28T19:04:43;9.70;99.90
47921;DHT22;33686;48.770;9.186;2023-12-28T19:07:09;9.70;99.90
47921;DHT22;33686;48.770;9.186;2023-12-28T19:09:36;9.70;99.90
47921;DHT22;33686;48.770;9.186;2023-12-28T19:12:02;9.70;99.90
47921;DHT22;33686;48.770;9.186;2023-12-28T19:14:28;9.70;99.90
47921;DHT22;33686;48.770;9.186;2023-12-28T19:16:54;9.70;99.90
47921;DHT22;33686;48.770;9.186;2023-12-28T19:19:21;9.70;99.90
47921;DHT22;33686;48.770;9.186;2023-12-28T19:21:47;9.80;99.90
47921;DHT22;33686;48.770;9.186;2023-12-28T19:24:13;9.80;99.90
47921;DHT22;33686;48.770;9.186;2023-12-28T19:26:38;9.80;99.90
47921;DHT22;33686;48.770;9.186;2023-12-28T19:29:04;9.80;99.90
47921;DHT22;33686;48.770;9.186;2023-12-28T19:31:29;9.80;99.90
47921;DHT22;33686;48.770;9.186;2023-12-28T19:33:55;9.80;99.90
47921;DHT22;33686;48.770;9.186;2023-12-28T19:36:20;9.80;99.90
47921;DHT22;33686;48.770;9.186;2023-12-28T19:38:46;9.80;99.90
47921;DHT22;33686;48.770;9.186;2023-12-28T19:41:11;9.80;99.90
47921;DHT22;33686;48.770;9.186;2023-12-28T19:43:37;9.80;99.90
47921;DHT22;33686;48.770;9.186;2023-12-28T19:46:03;9.80;99.90
47921;DHT22;33686;48.770;9.186;2023-12-28T19:48:29;9.80;99.90
47921;DHT22;33686;48.770;9.186;2023-12-28T19:50:54;9.70;99.90
47921;DHT22;33686;48.770;9.186;2023-12-28T19:53:20;9.80;99.90
47921;DHT22;33686;48.770;9.186;2023-12-28T19:55:46;9.80;99.90
47921;DHT22;33686;48.770;9.186;2023-12-28T19:58:13;9.70;99.90
47921;DHT22;33686;48.770;9.186;2023-12-28T20:00:39;9.80;99.90
47921;DHT22;33686;48.770;9.186;2023-12-28T20:03:05;9.70;99.90
47921;DHT22;33686;48.770;9.186;2023-12-28T20:05:31;9.70;99.90
47921;DHT22;33686;48.770;9.186;2023-12-28T20:07:57;9.70;99.90
47921;DHT22;33686;48.770;9.186;2023-12-28T20:10:24;9.70;99.90
47921;DHT22;33686;48.770;9.186;2023-12-28T20:12:50;9.70;99.90
47921;DHT22;33686;48.770;9.186;2023-12-28T20:15:15;9.70;99.90
47921;DHT22;33686;48.770;9.186;2023-12-28T20:17:46;9.70;99.90
47921;DHT22;33686;48.770;9.186;2023-12-28T20:20:11;9.70;99.90
47921;DHT22;33686;48.770;9.186;2023-12-28T20:22:37;9.70;99.90
47921;DHT22;33686;48.770;9.186;2023-12-28T20:25:03;9.70;99.90
47921;DHT22;33686;48.770;9.186;2023-12-28T20:27:28;9.70;99.90
47921;DHT22;33686;48.770;9.186;2023-12-28T20:29:54;9.70;99.90
47921;DHT22;33686;48.770;9.186;2023-12-28T20:32:19;9.60;99.90
47921;DHT22;33686;48.770;9.186;2023-12-28T20:34:45;9.60;99.90
47921;DHT22;33686;48.770;9.186;2023-12-28T20:37:10;9.60;99.90
47921;DHT22;33686;48.770;9.186;2023-12-28T20:39:36;9.60;99.90
47921;DHT22;33686;48.770;9.186;2023-12-28T20:42:01;9.60;99.90
47921;DHT22;33686;48.770;9.186;2023-12-28T20:44:27;9.60;99.90
47921;DHT22;33686;48.770;9.186;2023-12-28T20:46:52;9.60;99.90
47921;DHT22;33686;48.770;9.186;2023-12-28T20:49:18;9.60;99.90
47921;DHT22;33686;48.770;9.186;2023-12-28T20:51:43;9.60;99.90
47921;DHT22;33686;48.770;9.186;2023-12-28T20:54:09;9.60;99.90
47921;DHT22;33686;48.770;9.186;2023-12-28T20:56:35;9.60;99.90
47921;DHT22;33686;48.770;9.186;2023-12-28T20:59:00;9.60;99.90
47921;DHT22;33686;48.770;9.186;2023-12-28T21:01:26;9.60;99.90
47921;DHT22;33686;48.770;9.186;2023-12-28T21:03:52;9.60;99.90
47921;DHT22;33686;48.770;9.186;2023-12-28T21:06:17;9.60;99.90
47921;DHT22;33686;48.770;9.186;2023-12-28T21:08:43;9.60;99.90
47921;DHT22;33686;48.770;9.186;2023-12-28T21:11:08;9.50;99.90
47921;DHT22;33686;48.770;9.186;2023-12-28T21:13:34;9.60;99.90
47921;DHT22;33686;48.770;9.186;2023-12-28T21:16:07;9.60;99.90
47921;DHT22;33686;48.770;9.186;2023-12-28T21:18:32;9.60;99.90
47921;DHT22;33686;48.770;9.186;2023-12-28T21:20:58;9.60;99.90
47921;DHT22;33686;48.770;9.186;2023-12-28T21:23:24;9.60;99.90
47921;DHT22;33686;48.770;9.186;2023-12-28T21:25:50;9.60;99.90
47921;DHT22;33686;48.770;9.186;2023-12-28T21:28:15;9.60;99.90
47921;DHT22;33686;48.770;9.186;2023-12-28T21:30:41;9.60;99.90
47921;DHT22;33686;48.770;9.186;2023-12-28T21:33:08;9.60;99.90
47921;DHT22;33686;48.770;9.186;2023-12-28T21:35:34;9.60;99.90
47921;DHT22;33686;48.770;9.186;2023-12-28T21:37:59;9.60;99.90
47921;DHT22;33686;48.770;9.186;2023-12-28T21:40:25;9.60;99.90
47921;DHT22;33686;48.770;9.186;2023-12-28T21:42:51;9.50;99.90
47921;DHT22;33686;48.770;9.186;2023-12-28T21:45:16;9.50;99.90
47921;DHT22;33686;48.770;9.186;2023-12-28T21:47:42;9.60;99.90
47921;DHT22;33686;48.770;9.186;2023-12-28T21:50:07;9.50;99.90
47921;DHT22;33686;48.770;9.186;2023-12-28T21:52:33;9.50;99.90
47921;DHT22;33686;48.770;9.186;2023-12-28T21:54:59;9.40;99.90
47921;DHT22;33686;48.770;9.186;2023-12-28T21:57:25;9.50;99.90